KELM

Elmira / Corning Regional Airport

Elmira/Corning, New York, USA
KELM 221120Z 2212/2312 VRB03KT P6SM SCT250 FM222000 17007KT P6SM BKN250 FM230000 17005KT P6SM BKN200 WS020/20035KT
Issued Valid From Valid To
Jan-22 @ 11:20 UTC
(6 hours ago)
Jan-22 @ 12:00 UTC
(6 hours ago)
Jan-23 @ 12:00 UTC
(in 18 hours)
Jan-22 @ 12:00 to Jan-22 @ 20:00
KELM 221120Z 2212/2312 VRB03KT P6SM SCT250
Wind Visibility Clouds
Variable at 3 knots Greater than 6 miles
  • Scattered at 25,000' AGL
From Jan-22 @ 20:00 to Jan-23 @ 00:00
FM222000 17007KT P6SM BKN250
Wind Visibility Clouds
170° at 7 knots Greater than 6 miles
  • Broken at 25,000' AGL
From Jan-23 @ 00:00 to Jan-23 @ 12:00
FM230000 17005KT P6SM BKN200 WS020/20035KT
Wind Visibility Clouds
170° at 5 knots
 Wind shear 2,000' AGL from 200° at 35 knots
Greater than 6 miles
  • Broken at 20,000' AGL
KELM 221120Z 2212/2312 VRB03KT P6SM SCT250 FM222000 17007KT P6SM BKN250 FM230000 17005KT P6SM BKN200 WS020/20035KT
Issued Jan-22 @ 11:20 UTC
(6 hours ago)
Valid From Jan-22 @ 12:00 UTC
(6 hours ago)
Valid To Jan-23 @ 12:00 UTC
(in 18 hours)
Jan-22 @ 12:00 - Jan-22 @ 20:00
Wind Visibility
Variable at 3 knots Greater than 6 miles
Clouds
  • Scattered at 25,000' AGL
From Jan-22 @ 20:00 - Jan-23 @ 00:00
Wind Visibility
170° at 7 knots Greater than 6 miles
Clouds
  • Broken at 25,000' AGL
From Jan-23 @ 00:00 - Jan-23 @ 12:00
Wind Visibility
170° at 5 knots Greater than 6 miles
Clouds
  • Broken at 20,000' AGL